Norwegian Sky — C6PZ8 — position and weather

sailwx.info

Track history (hours):
 
Tides and Currents Weather Stations Pressure Air Temp Water Temp Dewpoint Dewpoint Depression Visibility Wind Speed Wind Dir Waves Ship Positions

Norwegian Sky (Norway)

Operator: Norwegian Cruise Line

Last reported at 2018-Feb-17 02:54 UTC. Time now 2018-Feb-18 10:47 UTC.
Position N 26°01' W 079°26'.

Length 258 m; draft 8.2 m.

Type: Ship. MMSI: 308865000.

Date/timePositionNaut miles runAvg speedWind from/ knotsBaromVisibWave heightAir tempDewpointWater temp
2018-Feb-17 02:54N 26°01' W 079°26'512.1
2018-Feb-17 02:30N 25°58' W 079°30'612.1
2018-Feb-17 02:00N 25°53' W 079°35'611.6
2018-Feb-17 01:30N 25°50' W 079°39'510.7
2018-Feb-17 01:00N 25°47' W 079°44'510.6
2018-Feb-17 00:31N 25°47' W 079°50'510.5
2018-Feb-17 00:01N 25°47' W 079°56'510.5
2018-Feb-16 23:30N 25°47' W 080°02'510.4
2018-Feb-16 23:00N 25°45' W 080°07'4 7.9
2018-Feb-16 22:31N 25°47' W 080°11'1 1.8
2018-Feb-16 22:00N 25°47' W 080°10'0 0.0
2018-Feb-16 21:30N 25°47' W 080°10'0 0.0
2018-Feb-16 21:00N 25°47' W 080°10'0 0.0
2018-Feb-16 20:30N 25°47' W 080°10'0 0.0
2018-Feb-16 19:59N 25°47' W 080°10'0 0.0
2018-Feb-16 19:29N 25°47' W 080°10'0 0.0
2018-Feb-16 18:59N 25°47' W 080°10'0 0.0
2018-Feb-16 18:26N 25°47' W 080°10'0 0.0
2018-Feb-16 17:58N 25°47' W 080°10'0 0.0
2018-Feb-16 17:28N 25°47' W 080°10'0 0.0
2018-Feb-16 16:58N 25°47' W 080°10'0 0.0
2018-Feb-16 16:22N 25°47' W 080°10'0 0.0
2018-Feb-16 15:58N 25°47' W 080°10'0 0.0
2018-Feb-16 15:30N 25°47' W 080°10'0 0.0
2018-Feb-16 15:00N 25°47' W 080°10'0 0.0
2018-Feb-16 14:30N 25°47' W 080°10'0 0.0
2018-Feb-16 13:57N 25°47' W 080°10'0 0.0
2018-Feb-16 13:29N 25°47' W 080°10'0 0.0
2018-Feb-16 12:59N 25°47' W 080°10'0 0.0
2018-Feb-16 12:29N 25°47' W 080°10'0 0.0
2018-Feb-16 11:59N 25°47' W 080°10'0 0.0
2018-Feb-16 11:29N 25°47' W 080°10'0 0.0
2018-Feb-16 10:58N 25°47' W 080°10'0 0.0
2018-Feb-16 10:28N 25°47' W 080°10'1 1.3
2018-Feb-16 10:00N 25°46' W 080°09'611.3
2018-Feb-16 09:30N 25°46' W 080°03'713.5
2018-Feb-16 09:00N 25°47' W 079°56'714.6
2018-Feb-16 08:30N 25°47' W 079°48'713.5
2018-Feb-16 08:00N 25°49' W 079°40'713.8
2018-Feb-16 07:30N 25°54' W 079°35'714.8
2018-Feb-16 07:00N 25°59' W 079°29'815.0
2018-Feb-16 06:30N 26°05' W 079°24'815.8
2018-Feb-16 06:00N 26°09' W 079°16'  
2018-Feb-13 06:24N 26°12' W 079°19'3 6.5
2018-Feb-13 05:59N 26°10' W 079°21'3 6.4
2018-Feb-13 05:29N 26°08' W 079°23'3 6.6
2018-Feb-13 05:00N 26°05' W 079°25'3 6.4
2018-Feb-13 04:30N 26°03' W 079°27'3 6.5
2018-Feb-13 04:00N 26°00' W 079°30'3 6.6
2018-Feb-13 03:30N 25°57' W 079°32'3 6.5
2018-Feb-13 03:00N 25°55' W 079°34'3 6.5
2018-Feb-13 02:30N 25°52' W 079°35'4 7.3
2018-Feb-13 02:00N 25°49' W 079°37'4 8.7
2018-Feb-13 01:30N 25°47' W 079°42'5 9.7
2018-Feb-13 01:00N 25°46' W 079°47'5 9.6
2018-Feb-13 00:30N 25°46' W 079°52'5 9.6
2018-Feb-13 00:00N 25°47' W 079°58'5 9.6
2018-Feb-12 23:30N 25°47' W 080°03'510.3
2018-Feb-12 23:01N 25°46' W 080°09'2 4.0
2018-Feb-12 22:31N 25°47' W 080°11'1 1.5
2018-Feb-12 22:00N 25°47' W 080°10'0 0.0
2018-Feb-12 21:29N 25°47' W 080°10'0 0.0
2018-Feb-12 20:59N 25°47' W 080°10'0 0.0
2018-Feb-12 20:29N 25°47' W 080°10'0 0.0
2018-Feb-12 19:59N 25°47' W 080°10'0 0.0
2018-Feb-12 19:29N 25°47' W 080°10'0 0.0
2018-Feb-12 18:58N 25°47' W 080°10'0 0.0
2018-Feb-12 18:28N 25°47' W 080°10'0 0.0
2018-Feb-12 17:55N 25°47' W 080°10'0 0.0
2018-Feb-12 17:28N 25°47' W 080°10'0 0.0
2018-Feb-12 17:00N 25°47' W 080°10'0 0.0
2018-Feb-12 16:30N 25°47' W 080°10'0 0.0
2018-Feb-12 15:51N 25°47' W 080°10'0 0.0
2018-Feb-12 15:30N 25°47' W 080°10'0 0.0
2018-Feb-12 15:00N 25°47' W 080°10'0 0.0
2018-Feb-12 14:29N 25°47' W 080°10'0 0.0
2018-Feb-12 13:59N 25°47' W 080°10'0 0.0
2018-Feb-12 13:30N 25°47' W 080°10'0 0.0
2018-Feb-12 12:58N 25°47' W 080°10'0 0.0
2018-Feb-12 12:28N 25°47' W 080°10'0 0.0
2018-Feb-12 12:00N 25°47' W 080°10'0 0.0
2018-Feb-12 11:30N 25°47' W 080°10'0 0.0
2018-Feb-12 11:01N 25°47' W 080°10'2 4.1
2018-Feb-12 10:31N 25°46' W 080°08'4 8.5
2018-Feb-12 10:00N 25°47' W 080°03'4 8.5
2018-Feb-12 09:30N 25°47' W 079°59'5 9.1
2018-Feb-12 09:00N 25°47' W 079°53'4 8.7
2018-Feb-12 08:30N 25°48' W 079°49'4 8.4
2018-Feb-12 08:00N 25°48' W 079°44'4 7.6
2018-Feb-12 07:30N 25°50' W 079°40'4 8.7
2018-Feb-12 07:00N 25°52' W 079°36'4 8.8
2018-Feb-12 06:30N 25°56' W 079°33'5 9.5
2018-Feb-12 06:00N 25°59' W 079°29'5 9.4
2018-Feb-12 05:30N 26°02' W 079°25'5 9.5
2018-Feb-12 04:59N 26°05' W 079°21'510.6
2018-Feb-12 04:29N 26°08' W 079°16'4 0.1
2018-Feb-10 01:28N 26°06' W 079°20'816.8
2018-Feb-10 01:00N 26°01' W 079°26'917.0
2018-Feb-10 00:30N 25°55' W 079°33'917.2
2018-Feb-10 00:00N 25°49' W 079°40'815.1
2018-Feb-09 23:30N 25°46' W 079°48'815.1
2018-Feb-09 23:00N 25°46' W 079°56'415.2
2018-Feb-09 22:46N 25°45' W 080°00'9 1.7
2018-Feb-09 17:30N 25°46' W 080°10'0 0.0
2018-Feb-09 17:00N 25°46' W 080°10'0 0.0
2018-Feb-09 16:30N 25°46' W 080°10'0 0.0
2018-Feb-09 16:00N 25°46' W 080°10'0 0.0
2018-Feb-09 15:30N 25°46' W 080°10'0 0.0
2018-Feb-09 15:00N 25°46' W 080°10'0 0.0
2018-Feb-09 14:30N 25°46' W 080°10'0 0.0
2018-Feb-09 14:00N 25°46' W 080°10'0 0.0
2018-Feb-09 13:30N 25°46' W 080°10'0 0.0
2018-Feb-09 13:00N 25°46' W 080°10'0 0.0
2018-Feb-09 11:30N 25°46' W 080°10'1 1.5
2018-Feb-09 11:00N 25°47' W 080°11'1 3.0
2018-Feb-09 10:30N 25°46' W 080°09'  
Track history (hours):
 
Tides and Currents Weather Stations Pressure Air Temp Water Temp Dewpoint Dewpoint Depression Visibility Wind Speed Wind Dir Waves Ship Positions

Norwegian Sky (Norway)

Operator: Norwegian Cruise Line

Last reported at 2018-Feb-17 02:54 UTC. Time now 2018-Feb-18 10:47 UTC.
Position N 26°01' W 079°26'.

Length 258 m; draft 8.2 m.

Type: Ship. MMSI: 308865000.

Date/timePositionNaut miles runAvg speedWind from/ knotsBaromVisibWave heightAir tempDewpointWater temp
2018-Feb-17 02:54N 26°01' W 079°26'512.1
2018-Feb-17 02:30N 25°58' W 079°30'612.1
2018-Feb-17 02:00N 25°53' W 079°35'611.6
2018-Feb-17 01:30N 25°50' W 079°39'510.7
2018-Feb-17 01:00N 25°47' W 079°44'510.6
2018-Feb-17 00:31N 25°47' W 079°50'510.5
2018-Feb-17 00:01N 25°47' W 079°56'510.5
2018-Feb-16 23:30N 25°47' W 080°02'510.4
2018-Feb-16 23:00N 25°45' W 080°07'4 7.9
2018-Feb-16 22:31N 25°47' W 080°11'1 1.8
2018-Feb-16 22:00N 25°47' W 080°10'0 0.0
2018-Feb-16 21:30N 25°47' W 080°10'0 0.0
2018-Feb-16 21:00N 25°47' W 080°10'0 0.0
2018-Feb-16 20:30N 25°47' W 080°10'0 0.0
2018-Feb-16 19:59N 25°47' W 080°10'0 0.0
2018-Feb-16 19:29N 25°47' W 080°10'0 0.0
2018-Feb-16 18:59N 25°47' W 080°10'0 0.0
2018-Feb-16 18:26N 25°47' W 080°10'0 0.0
2018-Feb-16 17:58N 25°47' W 080°10'0 0.0
2018-Feb-16 17:28N 25°47' W 080°10'0 0.0
2018-Feb-16 16:58N 25°47' W 080°10'0 0.0
2018-Feb-16 16:22N 25°47' W 080°10'0 0.0
2018-Feb-16 15:58N 25°47' W 080°10'0 0.0
2018-Feb-16 15:30N 25°47' W 080°10'0 0.0
2018-Feb-16 15:00N 25°47' W 080°10'0 0.0
2018-Feb-16 14:30N 25°47' W 080°10'0 0.0
2018-Feb-16 13:57N 25°47' W 080°10'0 0.0
2018-Feb-16 13:29N 25°47' W 080°10'0 0.0
2018-Feb-16 12:59N 25°47' W 080°10'0 0.0
2018-Feb-16 12:29N 25°47' W 080°10'0 0.0
2018-Feb-16 11:59N 25°47' W 080°10'0 0.0
2018-Feb-16 11:29N 25°47' W 080°10'0 0.0
2018-Feb-16 10:58N 25°47' W 080°10'0 0.0
2018-Feb-16 10:28N 25°47' W 080°10'1 1.3
2018-Feb-16 10:00N 25°46' W 080°09'611.3
2018-Feb-16 09:30N 25°46' W 080°03'713.5
2018-Feb-16 09:00N 25°47' W 079°56'714.6
2018-Feb-16 08:30N 25°47' W 079°48'713.5
2018-Feb-16 08:00N 25°49' W 079°40'713.8
2018-Feb-16 07:30N 25°54' W 079°35'714.8
2018-Feb-16 07:00N 25°59' W 079°29'815.0
2018-Feb-16 06:30N 26°05' W 079°24'815.8
2018-Feb-16 06:00N 26°09' W 079°16'  
2018-Feb-13 06:24N 26°12' W 079°19'3 6.5
2018-Feb-13 05:59N 26°10' W 079°21'3 6.4
2018-Feb-13 05:29N 26°08' W 079°23'3 6.6
2018-Feb-13 05:00N 26°05' W 079°25'3 6.4
2018-Feb-13 04:30N 26°03' W 079°27'3 6.5
2018-Feb-13 04:00N 26°00' W 079°30'3 6.6
2018-Feb-13 03:30N 25°57' W 079°32'3 6.5
2018-Feb-13 03:00N 25°55' W 079°34'3 6.5
2018-Feb-13 02:30N 25°52' W 079°35'4 7.3
2018-Feb-13 02:00N 25°49' W 079°37'4 8.7
2018-Feb-13 01:30N 25°47' W 079°42'5 9.7
2018-Feb-13 01:00N 25°46' W 079°47'5 9.6
2018-Feb-13 00:30N 25°46' W 079°52'5 9.6
2018-Feb-13 00:00N 25°47' W 079°58'5 9.6
2018-Feb-12 23:30N 25°47' W 080°03'510.3
2018-Feb-12 23:01N 25°46' W 080°09'2 4.0
2018-Feb-12 22:31N 25°47' W 080°11'1 1.5
2018-Feb-12 22:00N 25°47' W 080°10'0 0.0
2018-Feb-12 21:29N 25°47' W 080°10'0 0.0
2018-Feb-12 20:59N 25°47' W 080°10'0 0.0
2018-Feb-12 20:29N 25°47' W 080°10'0 0.0
2018-Feb-12 19:59N 25°47' W 080°10'0 0.0
2018-Feb-12 19:29N 25°47' W 080°10'0 0.0
2018-Feb-12 18:58N 25°47' W 080°10'0 0.0
2018-Feb-12 18:28N 25°47' W 080°10'0 0.0
2018-Feb-12 17:55N 25°47' W 080°10'0 0.0
2018-Feb-12 17:28N 25°47' W 080°10'0 0.0
2018-Feb-12 17:00N 25°47' W 080°10'0 0.0
2018-Feb-12 16:30N 25°47' W 080°10'0 0.0
2018-Feb-12 15:51N 25°47' W 080°10'0 0.0
2018-Feb-12 15:30N 25°47' W 080°10'0 0.0
2018-Feb-12 15:00N 25°47' W 080°10'0 0.0
2018-Feb-12 14:29N 25°47' W 080°10'0 0.0
2018-Feb-12 13:59N 25°47' W 080°10'0 0.0
2018-Feb-12 13:30N 25°47' W 080°10'0 0.0
2018-Feb-12 12:58N 25°47' W 080°10'0 0.0
2018-Feb-12 12:28N 25°47' W 080°10'0 0.0
2018-Feb-12 12:00N 25°47' W 080°10'0 0.0
2018-Feb-12 11:30N 25°47' W 080°10'0 0.0
2018-Feb-12 11:01N 25°47' W 080°10'2 4.1
2018-Feb-12 10:31N 25°46' W 080°08'4 8.5
2018-Feb-12 10:00N 25°47' W 080°03'4 8.5
2018-Feb-12 09:30N 25°47' W 079°59'5 9.1
2018-Feb-12 09:00N 25°47' W 079°53'4 8.7
2018-Feb-12 08:30N 25°48' W 079°49'4 8.4
2018-Feb-12 08:00N 25°48' W 079°44'4 7.6
2018-Feb-12 07:30N 25°50' W 079°40'4 8.7
2018-Feb-12 07:00N 25°52' W 079°36'4 8.8
2018-Feb-12 06:30N 25°56' W 079°33'5 9.5
2018-Feb-12 06:00N 25°59' W 079°29'5 9.4
2018-Feb-12 05:30N 26°02' W 079°25'5 9.5
2018-Feb-12 04:59N 26°05' W 079°21'510.6
2018-Feb-12 04:29N 26°08' W 079°16'4 0.1
2018-Feb-10 01:28N 26°06' W 079°20'816.8
2018-Feb-10 01:00N 26°01' W 079°26'917.0
2018-Feb-10 00:30N 25°55' W 079°33'917.2
2018-Feb-10 00:00N 25°49' W 079°40'815.1
2018-Feb-09 23:30N 25°46' W 079°48'815.1
2018-Feb-09 23:00N 25°46' W 079°56'415.2
2018-Feb-09 22:46N 25°45' W 080°00'9 1.7
2018-Feb-09 17:30N 25°46' W 080°10'0 0.0
2018-Feb-09 17:00N 25°46' W 080°10'0 0.0
2018-Feb-09 16:30N 25°46' W 080°10'0 0.0
2018-Feb-09 16:00N 25°46' W 080°10'0 0.0
2018-Feb-09 15:30N 25°46' W 080°10'0 0.0
2018-Feb-09 15:00N 25°46' W 080°10'0 0.0
2018-Feb-09 14:30N 25°46' W 080°10'0 0.0
2018-Feb-09 14:00N 25°46' W 080°10'0 0.0
2018-Feb-09 13:30N 25°46' W 080°10'0 0.0
2018-Feb-09 13:00N 25°46' W 080°10'0 0.0
2018-Feb-09 11:30N 25°46' W 080°10'1 1.5
2018-Feb-09 11:00N 25°47' W 080°11'1 3.0
2018-Feb-09 10:30N 25°46' W 080°09'  

Dump ship's entire track history